createdAt,value
2018-11-26T00:00:45.681Z,11.50
2018-11-26T00:03:13.160Z,11.80
2018-11-26T00:05:40.758Z,11.47
2018-11-26T00:08:09.628Z,11.57
2018-11-26T00:10:48.613Z,11.87
2018-11-26T00:13:16.105Z,11.61
2018-11-26T00:15:44.091Z,10.64
2018-11-26T00:18:11.452Z,10.71
2018-11-26T00:20:41.236Z,11.18
2018-11-26T00:23:08.866Z,10.66
2018-11-26T00:25:36.259Z,11.04
2018-11-26T00:28:03.793Z,11.53
2018-11-26T00:30:31.832Z,11.77
2018-11-26T00:32:59.167Z,12.20
2018-11-26T00:35:26.552Z,11.80
2018-11-26T00:37:53.880Z,11.71
2018-11-26T00:40:21.253Z,12.19
2018-11-26T00:42:48.711Z,12.01
2018-11-26T00:45:16.745Z,11.67
2018-11-26T00:47:44.125Z,12.02
2018-11-26T00:50:11.454Z,11.97
2018-11-26T00:52:39.914Z,11.49
2018-11-26T00:55:09.217Z,11.58
2018-11-26T00:57:36.675Z,11.36
2018-11-26T01:00:06.349Z,11.25
2018-11-26T01:02:34.895Z,11.42
2018-11-26T01:05:02.211Z,11.38
2018-11-26T01:07:29.656Z,12.05
2018-11-26T01:09:57.030Z,11.75
2018-11-26T01:12:24.339Z,12.19
2018-11-26T01:14:51.702Z,11.76
2018-11-26T01:17:19.141Z,11.49
2018-11-26T01:19:46.475Z,11.32
2018-11-26T01:22:13.893Z,11.43
2018-11-26T01:24:41.324Z,11.86
2018-11-26T01:27:08.672Z,11.98
2018-11-26T01:29:36.060Z,11.82
2018-11-26T01:32:03.413Z,11.88
2018-11-26T01:34:30.781Z,11.69
2018-11-26T01:36:58.221Z,12.14
2018-11-26T01:39:25.567Z,11.68
2018-11-26T01:41:52.886Z,11.59
2018-11-26T01:44:20.224Z,11.30
2018-11-26T01:46:47.569Z,11.26
2018-11-26T01:49:14.915Z,11.28
2018-11-26T01:51:42.202Z,11.37
2018-11-26T01:54:09.703Z,10.95
2018-11-26T01:56:37.048Z,11.17
2018-11-26T01:59:04.454Z,10.88
2018-11-26T02:01:31.796Z,10.57
2018-11-26T02:03:59.099Z,10.56
2018-11-26T02:06:26.446Z,10.36
2018-11-26T02:08:53.752Z,11.23
2018-11-26T02:11:21.204Z,11.18
2018-11-26T02:13:48.542Z,11.25
2018-11-26T02:16:15.986Z,11.08
2018-11-26T02:18:43.332Z,11.15
2018-11-26T02:21:10.701Z,11.31
2018-11-26T02:23:38.654Z,11.26
2018-11-26T02:26:06.205Z,11.23
2018-11-26T02:28:34.135Z,11.63
2018-11-26T02:31:01.529Z,11.56
2018-11-26T02:33:28.853Z,11.79
2018-11-26T02:35:56.187Z,12.09
2018-11-26T02:38:23.545Z,11.83
2018-11-26T02:40:50.884Z,11.40
2018-11-26T02:43:18.262Z,11.01
2018-11-26T02:45:45.664Z,11.33
2018-11-26T02:48:13.766Z,11.35
2018-11-26T02:50:41.579Z,11.52
2018-11-26T02:53:08.953Z,11.89
2018-11-26T02:55:36.282Z,11.28
2018-11-26T02:58:03.618Z,10.91
2018-11-26T03:00:30.962Z,11.49
2018-11-26T03:02:58.394Z,11.54
2018-11-26T03:05:27.348Z,10.79
2018-11-26T03:07:54.794Z,10.92
2018-11-26T03:10:22.611Z,11.46
2018-11-26T03:12:49.987Z,11.35
2018-11-26T03:15:17.374Z,10.77
2018-11-26T03:17:45.879Z,10.73
2018-11-26T03:20:14.205Z,10.89
2018-11-26T03:22:41.590Z,10.70
2018-11-26T03:25:10.125Z,10.35
2018-11-26T03:27:37.540Z,10.61
2018-11-26T03:30:13.232Z,10.88
2018-11-26T03:32:40.609Z,10.27
2018-11-26T03:35:09.065Z,10.04
2018-11-26T03:37:36.378Z,10.51
2018-11-26T03:40:07.825Z,10.71
2018-11-26T03:42:35.272Z,10.32
2018-11-26T03:45:02.639Z,10.38
2018-11-26T03:47:30.007Z,10.56
2018-11-26T03:49:57.501Z,10.94
2018-11-26T03:52:24.832Z,10.33
2018-11-26T03:54:52.197Z,10.71
2018-11-26T03:57:19.711Z,10.79
2018-11-26T03:59:47.183Z,9.83
2018-11-26T04:02:14.652Z,10.15
2018-11-26T04:04:41.994Z,10.41
2018-11-26T04:07:09.341Z,10.55
2018-11-26T04:09:36.676Z,10.15
2018-11-26T04:12:04.235Z,10.14
2018-11-26T04:14:31.590Z,10.39
2018-11-26T04:17:02.303Z,10.31
2018-11-26T04:19:29.735Z,10.57
2018-11-26T04:21:57.054Z,10.06
2018-11-26T04:24:24.527Z,10.08
2018-11-26T04:26:51.987Z,9.57
2018-11-26T04:29:19.306Z,9.63
2018-11-26T04:31:46.697Z,10.19
2018-11-26T04:34:14.055Z,10.16
2018-11-26T04:36:41.393Z,9.56
2018-11-26T04:39:08.717Z,9.34
2018-11-26T04:41:36.128Z,9.24
2018-11-26T04:44:03.456Z,9.42
2018-11-26T04:46:30.904Z,9.71
2018-11-26T04:48:58.254Z,9.27
2018-11-26T04:51:25.700Z,10.01
2018-11-26T04:53:53.096Z,9.37
2018-11-26T04:56:20.512Z,9.44
2018-11-26T04:58:47.870Z,9.72
2018-11-26T05:01:15.303Z,9.11
2018-11-26T05:03:42.626Z,8.89
2018-11-26T05:06:09.956Z,9.24
2018-11-26T05:08:37.803Z,9.66
2018-11-26T05:11:05.463Z,10.00
2018-11-26T05:13:32.806Z,9.77
2018-11-26T05:16:00.184Z,9.88
2018-11-26T05:18:27.587Z,9.44
2018-11-26T05:20:54.902Z,9.83
2018-11-26T05:23:22.264Z,9.57
2018-11-26T05:25:49.595Z,9.56
2018-11-26T05:28:16.887Z,9.95
2018-11-26T05:30:44.230Z,9.97
2018-11-26T05:33:11.660Z,10.18
2018-11-26T05:35:39.085Z,10.26
2018-11-26T05:38:06.413Z,10.56
2018-11-26T05:40:33.903Z,10.24
2018-11-26T05:43:01.297Z,10.53
2018-11-26T05:45:28.736Z,10.08
2018-11-26T05:47:56.073Z,9.98
2018-11-26T05:50:23.389Z,10.15
2018-11-26T05:52:50.871Z,8.86
2018-11-26T05:55:18.305Z,8.66
2018-11-26T05:57:46.303Z,8.46
2018-11-26T06:00:22.099Z,8.92
2018-11-26T06:02:49.444Z,8.66
2018-11-26T06:05:20.602Z,8.72
2018-11-26T06:07:48.020Z,9.60
2018-11-26T06:10:15.384Z,9.52
2018-11-26T06:12:42.693Z,9.60
2018-11-26T06:15:12.364Z,9.18
2018-11-26T06:17:39.998Z,8.69
2018-11-26T06:20:09.258Z,8.74
2018-11-26T06:22:36.613Z,8.47
2018-11-26T06:25:05.623Z,7.94
2018-11-26T06:27:32.950Z,8.35
2018-11-26T06:30:00.292Z,9.06
2018-11-26T06:32:27.702Z,9.25
2018-11-26T06:34:55.012Z,9.44
2018-11-26T06:37:22.353Z,9.55
2018-11-26T06:39:49.702Z,9.57
2018-11-26T06:42:17.014Z,9.41
2018-11-26T06:44:44.354Z,8.71
2018-11-26T06:47:11.787Z,8.34
2018-11-26T06:49:39.350Z,9.13
2018-11-26T06:52:06.708Z,8.61
2018-11-26T06:54:34.213Z,8.80
2018-11-26T06:57:01.639Z,9.07
2018-11-26T06:59:29.105Z,8.70
2018-11-26T07:01:56.451Z,9.02
2018-11-26T07:04:23.793Z,8.70
2018-11-26T07:06:51.189Z,9.08
2018-11-26T07:09:18.490Z,8.00
2018-11-26T07:11:45.951Z,8.38
2018-11-26T07:14:13.273Z,7.92
2018-11-26T07:16:41.383Z,7.88
2018-11-26T07:19:08.790Z,7.84
2018-11-26T07:21:36.263Z,8.04
2018-11-26T07:24:03.591Z,8.44
2018-11-26T07:26:30.927Z,8.11
2018-11-26T07:28:58.355Z,8.06
2018-11-26T07:31:25.790Z,8.22
2018-11-26T07:33:53.225Z,8.55
2018-11-26T07:36:20.630Z,8.84
2018-11-26T07:38:48.123Z,9.03
2018-11-26T07:41:15.457Z,8.37
2018-11-26T07:43:42.873Z,8.53
2018-11-26T07:46:10.216Z,8.08
2018-11-26T07:48:37.638Z,8.90
2018-11-26T07:51:05.536Z,8.58
2018-11-26T07:53:32.937Z,8.74
2018-11-26T07:56:00.248Z,8.29
2018-11-26T07:58:27.598Z,7.90
2018-11-26T08:00:55.017Z,8.41
2018-11-26T08:03:22.529Z,8.30
2018-11-26T08:05:50.671Z,8.57
2018-11-26T08:08:18.210Z,8.27
2018-11-26T08:10:46.852Z,8.50
2018-11-26T08:13:14.366Z,8.55
2018-11-26T08:15:41.793Z,8.67
2018-11-26T08:18:09.117Z,8.48
2018-11-26T08:20:36.547Z,9.02
2018-11-26T08:23:04.268Z,8.94
2018-11-26T08:25:31.674Z,8.65
2018-11-26T08:27:59.294Z,8.63
2018-11-26T08:30:27.321Z,9.23
2018-11-26T08:32:55.971Z,8.97
2018-11-26T08:35:23.334Z,8.99
2018-11-26T08:38:01.384Z,8.96
2018-11-26T08:40:30.429Z,9.15
2018-11-26T08:43:15.349Z,8.95
2018-11-26T08:45:51.852Z,9.07
2018-11-26T08:48:30.834Z,8.72
2018-11-26T08:50:59.367Z,9.33
2018-11-26T08:53:26.875Z,8.90
2018-11-26T08:55:54.297Z,9.47
2018-11-26T08:58:21.726Z,9.15
2018-11-26T09:00:55.294Z,9.27
2018-11-26T09:03:23.756Z,9.38
2018-11-26T09:05:59.750Z,9.69
2018-11-26T09:08:27.854Z,9.75
2018-11-26T09:10:55.302Z,10.01
2018-11-26T09:13:22.647Z,10.05
2018-11-26T09:15:50.016Z,9.72
2018-11-26T09:18:17.414Z,10.04
2018-11-26T09:20:44.796Z,10.26
2018-11-26T09:23:12.173Z,10.06
2018-11-26T09:25:39.487Z,10.14
2018-11-26T09:28:06.840Z,10.18
2018-11-26T09:30:34.198Z,10.25
2018-11-26T09:33:01.660Z,10.45
2018-11-26T09:35:29.006Z,10.51
2018-11-26T09:37:56.395Z,10.31
2018-11-26T09:40:23.772Z,9.78
2018-11-26T09:42:51.118Z,9.89
2018-11-26T09:45:18.550Z,9.90
2018-11-26T09:47:46.214Z,9.49
2018-11-26T09:50:18.027Z,9.58
2018-11-26T09:52:45.540Z,9.25
2018-11-26T09:55:14.317Z,8.96
2018-11-26T09:57:41.680Z,9.54
2018-11-26T10:00:11.655Z,10.08
2018-11-26T10:02:39.705Z,9.55
2018-11-26T10:05:09.431Z,9.05
2018-11-26T10:07:36.900Z,9.32
2018-11-26T10:10:06.032Z,9.53
2018-11-26T10:12:33.941Z,9.56
2018-11-26T10:15:01.319Z,8.97
2018-11-26T10:17:28.631Z,9.29
2018-11-26T10:19:56.005Z,9.52
2018-11-26T10:22:23.441Z,9.75
2018-11-26T10:24:50.843Z,9.90
2018-11-26T10:27:18.257Z,9.84
2018-11-26T10:29:45.751Z,9.60
2018-11-26T10:32:13.138Z,9.76
2018-11-26T10:34:40.791Z,9.44
2018-11-26T10:37:08.131Z,9.92
2018-11-26T10:39:35.480Z,10.00
2018-11-26T10:42:02.927Z,10.10
2018-11-26T10:44:30.269Z,10.19
2018-11-26T10:46:57.646Z,9.85
2018-11-26T10:49:25.096Z,9.90
2018-11-26T10:51:52.556Z,9.84
2018-11-26T10:54:20.388Z,9.71
2018-11-26T10:56:47.769Z,10.14
2018-11-26T10:59:15.322Z,9.55
2018-11-26T11:01:44.390Z,9.80
2018-11-26T11:04:11.852Z,9.51
2018-11-26T11:06:39.290Z,9.51
2018-11-26T11:09:07.926Z,9.39
2018-11-26T11:11:35.280Z,9.42
2018-11-26T11:14:02.865Z,8.85
2018-11-26T11:16:30.236Z,9.39
2018-11-26T11:18:57.575Z,9.73
2018-11-26T11:21:25.146Z,9.51
2018-11-26T11:23:52.627Z,9.51
2018-11-26T11:26:20.034Z,9.92
2018-11-26T11:28:47.368Z,9.96
2018-11-26T11:31:15.274Z,10.12
2018-11-26T11:33:42.746Z,10.09
2018-11-26T11:36:10.135Z,9.76
2018-11-26T11:38:37.506Z,10.11
2018-11-26T11:41:05.889Z,10.10
2018-11-26T11:43:33.408Z,10.16
2018-11-26T11:46:00.844Z,10.23
2018-11-26T11:48:28.232Z,10.20
2018-11-26T11:50:55.549Z,10.47
2018-11-26T11:53:23.026Z,10.33
2018-11-26T11:55:50.832Z,10.45
2018-11-26T11:58:18.192Z,10.09
2018-11-26T12:00:47.091Z,10.10
2018-11-26T12:03:17.889Z,10.28
2018-11-26T12:05:45.315Z,10.47
2018-11-26T12:08:12.778Z,10.39
2018-11-26T12:10:40.222Z,10.39
2018-11-26T12:13:09.197Z,10.43
2018-11-26T12:15:38.292Z,10.30
2018-11-26T12:18:06.782Z,10.25
2018-11-26T12:20:34.533Z,10.46
2018-11-26T12:23:01.988Z,10.56
2018-11-26T12:25:29.525Z,10.46
2018-11-26T12:27:56.955Z,10.03
2018-11-26T12:30:25.652Z,9.83
2018-11-26T12:32:53.105Z,10.00
2018-11-26T12:35:20.445Z,10.69
2018-11-26T12:37:47.899Z,10.06
2018-11-26T12:42:55.239Z,10.58
2018-11-26T12:45:26.911Z,10.53
2018-11-26T12:47:54.324Z,9.59
2018-11-26T12:50:21.693Z,9.56
2018-11-26T12:52:49.963Z,9.62
2018-11-26T12:55:18.379Z,9.60
2018-11-26T12:57:46.899Z,10.00
2018-11-26T13:00:25.096Z,10.17
2018-11-26T13:03:02.243Z,10.02
2018-11-26T13:05:29.604Z,9.71
2018-11-26T13:07:56.947Z,10.24
2018-11-26T13:10:24.320Z,10.07
2018-11-26T13:12:52.298Z,9.79
2018-11-26T13:15:20.968Z,9.43
2018-11-26T13:17:48.328Z,9.53
2018-11-26T13:20:19.128Z,9.92
2018-11-26T13:22:46.588Z,9.41
2018-11-26T13:25:17.218Z,9.84
2018-11-26T13:27:48.171Z,9.70
2018-11-26T13:30:18.842Z,9.27
2018-11-26T13:32:48.394Z,10.09
2018-11-26T13:35:16.837Z,10.09
2018-11-26T13:37:44.293Z,9.65
2018-11-26T13:40:13.056Z,9.53
2018-11-26T13:42:40.799Z,9.90
2018-11-26T13:45:17.675Z,9.61
2018-11-26T13:47:45.458Z,9.80
2018-11-26T13:50:17.737Z,10.06
2018-11-26T13:52:45.099Z,10.12
2018-11-26T13:55:12.718Z,10.01
2018-11-26T13:57:40.287Z,10.03
2018-11-26T14:00:14.849Z,10.48
2018-11-26T14:02:42.308Z,10.62
2018-11-26T14:05:11.165Z,10.90
2018-11-26T14:07:38.641Z,10.47
2018-11-26T14:10:10.439Z,10.23
2018-11-26T14:12:38.094Z,10.51
2018-11-26T14:15:08.207Z,10.00
2018-11-26T14:17:35.674Z,10.06
2018-11-26T14:20:03.356Z,9.75
2018-11-26T14:22:30.839Z,10.23
2018-11-26T14:24:58.216Z,10.32
2018-11-26T14:27:25.664Z,10.49
2018-11-26T14:29:53.509Z,10.25
2018-11-26T14:32:21.266Z,10.33
2018-11-26T14:34:49.105Z,10.16
2018-11-26T14:37:16.437Z,10.17
2018-11-26T14:39:43.781Z,10.61
2018-11-26T14:42:11.161Z,10.85
2018-11-26T14:44:38.530Z,10.98
2018-11-26T14:47:06.482Z,10.63
2018-11-26T14:49:33.832Z,10.28
2018-11-26T14:52:01.269Z,9.74
2018-11-26T14:54:28.619Z,9.96
2018-11-26T14:56:56.055Z,10.59
2018-11-26T14:59:23.416Z,10.71
2018-11-26T15:01:50.877Z,10.51
2018-11-26T15:04:18.201Z,10.20
2018-11-26T15:06:45.576Z,10.24
2018-11-26T15:09:12.889Z,10.53
2018-11-26T15:11:40.344Z,10.28
2018-11-26T15:14:07.765Z,10.51
2018-11-26T15:16:35.162Z,10.51
2018-11-26T15:19:02.550Z,10.00
2018-11-26T15:21:30.606Z,9.63
2018-11-26T15:23:58.048Z,9.74
2018-11-26T15:26:28.602Z,10.00
2018-11-26T15:28:56.845Z,10.44
2018-11-26T15:31:24.172Z,9.82
2018-11-26T15:33:51.515Z,10.10
2018-11-26T15:36:18.880Z,10.10
2018-11-26T15:38:46.242Z,10.22
2018-11-26T15:41:13.618Z,10.23
2018-11-26T15:43:41.036Z,10.35
2018-11-26T15:46:09.117Z,10.19
2018-11-26T15:48:36.451Z,9.83
2018-11-26T15:51:03.792Z,9.90
2018-11-26T15:53:31.810Z,10.08
2018-11-26T15:55:59.216Z,10.29
2018-11-26T15:58:26.649Z,10.27
2018-11-26T16:00:54.158Z,10.03
2018-11-26T16:03:21.625Z,10.17
2018-11-26T16:05:49.135Z,9.60
2018-11-26T16:08:16.501Z,9.75
2018-11-26T16:10:43.819Z,9.70
2018-11-26T16:13:13.286Z,9.89
2018-11-26T16:15:42.155Z,10.16
2018-11-26T16:18:13.518Z,10.22
2018-11-26T16:20:39.813Z,10.57
2018-11-26T16:23:08.656Z,9.53
2018-11-26T16:25:37.245Z,9.89
2018-11-26T16:28:05.165Z,10.07
2018-11-26T16:30:32.679Z,10.27
2018-11-26T16:33:00.106Z,10.27
2018-11-26T16:35:29.139Z,9.73
2018-11-26T16:37:56.731Z,9.65
2018-11-26T16:40:24.251Z,9.93
2018-11-26T16:42:51.835Z,10.10
2018-11-26T16:45:21.445Z,10.53
2018-11-26T16:47:51.126Z,10.75
2018-11-26T16:50:19.634Z,10.14
2018-11-26T16:52:47.088Z,10.58
2018-11-26T16:55:15.217Z,10.72
2018-11-26T16:57:42.915Z,10.60
2018-11-26T17:00:17.365Z,10.24
2018-11-26T17:02:45.752Z,10.54
2018-11-26T17:05:17.993Z,10.04
2018-11-26T17:07:45.374Z,10.21
2018-11-26T17:10:12.728Z,10.17
2018-11-26T17:12:40.546Z,10.24
2018-11-26T17:15:12.555Z,10.37
2018-11-26T17:17:40.040Z,9.93
2018-11-26T17:20:09.360Z,10.35
2018-11-26T17:22:36.719Z,10.10
2018-11-26T17:25:05.323Z,9.98
2018-11-26T17:27:32.817Z,10.28
2018-11-26T17:30:00.322Z,9.86
2018-11-26T17:32:27.742Z,10.44
2018-11-26T17:34:55.307Z,10.71
2018-11-26T17:37:22.807Z,10.82
2018-11-26T17:39:50.173Z,10.70
2018-11-26T17:42:17.530Z,10.72
2018-11-26T17:44:45.062Z,10.56
2018-11-26T17:47:12.999Z,10.77
2018-11-26T17:49:40.389Z,10.57
2018-11-26T17:52:07.928Z,10.74
2018-11-26T17:54:35.815Z,10.18
2018-11-26T17:57:03.143Z,10.02
2018-11-26T17:59:30.957Z,10.59
2018-11-26T18:01:59.082Z,10.68
2018-11-26T18:04:26.496Z,10.76
2018-11-26T18:06:53.847Z,10.78
2018-11-26T18:09:22.869Z,10.99
2018-11-26T18:11:48.880Z,10.86
2018-11-26T18:14:16.240Z,10.11
2018-11-26T18:16:44.639Z,10.68
2018-11-26T18:19:12.064Z,10.89
2018-11-26T18:21:39.478Z,11.12
2018-11-26T18:24:07.148Z,10.87
2018-11-26T18:26:35.238Z,10.42
2018-11-26T18:29:02.938Z,10.91
2018-11-26T18:31:30.800Z,10.65
2018-11-26T18:33:58.521Z,10.33
2018-11-26T18:36:26.028Z,10.60
2018-11-26T18:38:53.352Z,10.64
2018-11-26T18:41:20.809Z,10.30
2018-11-26T18:43:48.139Z,10.27
2018-11-26T18:46:15.463Z,10.58
2018-11-26T18:48:42.936Z,10.94
2018-11-26T18:51:10.321Z,11.04
2018-11-26T18:53:37.698Z,10.62
2018-11-26T18:56:06.065Z,10.32
2018-11-26T18:58:34.594Z,10.40
2018-11-26T19:01:01.996Z,10.78
2018-11-26T19:03:29.494Z,10.42
2018-11-26T19:05:56.940Z,10.27
2018-11-26T19:08:24.525Z,9.68
2018-11-26T19:10:55.166Z,9.79
2018-11-26T19:13:24.731Z,9.96
2018-11-26T19:15:56.234Z,10.11
2018-11-26T19:18:25.807Z,10.20
2018-11-26T19:20:53.704Z,10.04
2018-11-26T19:23:21.683Z,9.99
2018-11-26T19:25:50.500Z,10.14
2018-11-26T19:28:20.471Z,10.30
2018-11-26T19:30:45.537Z,10.38
2018-11-26T19:33:12.885Z,9.93
2018-11-26T19:35:40.322Z,9.93
2018-11-26T19:38:08.046Z,9.90
2018-11-26T19:40:36.913Z,9.91
2018-11-26T19:43:04.949Z,10.21
2018-11-26T19:45:32.515Z,9.73
2018-11-26T19:48:00.013Z,10.23
2018-11-26T19:50:27.351Z,9.58
2018-11-26T19:52:54.916Z,9.75
2018-11-26T19:55:23.641Z,9.79
2018-11-26T19:57:51.650Z,10.23
2018-11-26T20:00:27.973Z,10.04
2018-11-26T20:03:13.957Z,10.08
2018-11-26T20:05:48.321Z,9.73
2018-11-26T20:08:15.704Z,9.90
2018-11-26T20:10:43.064Z,9.69
2018-11-26T20:13:10.509Z,9.93
2018-11-26T20:15:37.970Z,10.45
2018-11-26T20:18:05.962Z,10.67
2018-11-26T20:20:33.300Z,10.51
2018-11-26T20:23:00.778Z,10.05
2018-11-26T20:25:28.260Z,8.93
2018-11-26T20:27:56.112Z,9.65
2018-11-26T20:30:23.147Z,9.51
2018-11-26T20:32:50.618Z,9.74
2018-11-26T20:35:17.998Z,10.02
2018-11-26T20:37:45.493Z,9.99
2018-11-26T20:40:14.077Z,9.97
2018-11-26T20:42:48.539Z,9.71
2018-11-26T20:45:16.368Z,9.99
2018-11-26T20:47:45.253Z,10.55
2018-11-26T20:50:27.901Z,10.50
2018-11-26T20:52:56.565Z,10.42
2018-11-26T20:55:25.070Z,10.60
2018-11-26T20:57:54.129Z,9.84
2018-11-26T21:00:22.953Z,10.33
2018-11-26T21:02:52.867Z,10.20
2018-11-26T21:05:20.632Z,10.62
2018-11-26T21:07:48.377Z,10.78
2018-11-26T21:10:16.410Z,10.20
2018-11-26T21:12:44.941Z,10.46
2018-11-26T21:15:15.183Z,9.96
2018-11-26T21:17:44.275Z,10.03
2018-11-26T21:20:19.579Z,10.32
2018-11-26T21:22:48.112Z,9.89
2018-11-26T21:25:16.389Z,10.05
2018-11-26T21:27:44.771Z,9.90
2018-11-26T21:30:14.706Z,10.32
2018-11-26T21:32:43.156Z,10.72
2018-11-26T21:35:12.610Z,10.72
2018-11-26T21:37:41.335Z,10.55
2018-11-26T21:40:11.063Z,10.65
2018-11-26T21:42:38.872Z,10.56
2018-11-26T21:45:16.884Z,10.63
2018-11-26T21:47:44.620Z,10.04
2018-11-26T21:50:13.514Z,10.09
2018-11-26T21:52:41.694Z,9.69
2018-11-26T21:55:13.997Z,9.91
2018-11-26T21:57:41.852Z,10.19
2018-11-26T22:00:20.687Z,10.29
2018-11-26T22:02:49.038Z,9.99
2018-11-26T22:05:17.256Z,9.30
2018-11-26T22:07:45.313Z,9.22
2018-11-26T22:10:15.610Z,9.62
2018-11-26T22:12:45.426Z,9.88
2018-11-26T22:15:13.713Z,9.42
2018-11-26T22:17:41.787Z,9.54
2018-11-26T22:20:13.600Z,10.15
2018-11-26T22:22:41.357Z,9.69
2018-11-26T22:25:10.337Z,9.86
2018-11-26T22:27:38.598Z,9.40
2018-11-26T22:30:38.487Z,9.40
2018-11-26T22:33:06.369Z,9.78
2018-11-26T22:35:34.185Z,9.62
2018-11-26T22:38:01.915Z,9.63
2018-11-26T22:40:29.422Z,9.35
2018-11-26T22:42:56.750Z,10.04
2018-11-26T22:45:28.059Z,9.67
2018-11-26T22:48:01.960Z,9.98
2018-11-26T22:50:29.371Z,9.66
2018-11-26T22:52:56.765Z,9.54
2018-11-26T22:55:24.119Z,9.71
2018-11-26T22:57:51.502Z,9.82
2018-11-26T23:00:26.622Z,10.34
2018-11-26T23:02:55.411Z,10.01
2018-11-26T23:05:22.775Z,9.93
2018-11-26T23:07:50.177Z,10.33
2018-11-26T23:10:17.526Z,9.68
2018-11-26T23:12:44.935Z,10.10
2018-11-26T23:15:13.587Z,9.79
2018-11-26T23:17:41.361Z,9.49
2018-11-26T23:20:11.173Z,9.51
2018-11-26T23:22:39.549Z,9.52
2018-11-26T23:25:09.490Z,9.78
2018-11-26T23:27:36.835Z,9.47
2018-11-26T23:30:08.300Z,9.46
2018-11-26T23:32:35.635Z,9.28
2018-11-26T23:35:02.962Z,9.45
2018-11-26T23:37:30.425Z,9.51
2018-11-26T23:39:57.796Z,9.35
2018-11-26T23:42:25.202Z,9.43
2018-11-26T23:44:52.594Z,9.15
2018-11-26T23:47:19.948Z,9.91
2018-11-26T23:49:47.926Z,9.79
2018-11-26T23:52:15.366Z,9.96
2018-11-26T23:54:42.730Z,10.08
2018-11-26T23:57:10.228Z,9.46
2018-11-26T23:59:37.685Z,9.41
